Time;durP1;ratioP1;P1;durP2;ratioP2;P2;SDS_P1;SDS_P2;PMS_P1;PMS_P2;Temp;Humidity;BMP_temperature;BMP_pressure;BME280_temperature;BME280_humidity;BME280_pressure;Samples;Min_cycle;Max_cycle;Signal;HPM_P1;HPM_P2
2022/08/11 00:01:25;;;;;;;5.18;3.47;;;18.60;99.90;;;;;;5018807;28;20490;-85
2022/08/11 00:03:56;;;;;;;5.38;3.65;;;18.60;99.90;;;;;;5029575;28;20505;-85
2022/08/11 00:06:29;;;;;;;7.70;4.43;;;18.60;99.90;;;;;;5029765;28;20452;-86
2022/08/11 00:08:56;;;;;;;4.65;3.47;;;18.50;99.90;;;;;;5022118;28;20077;-86
2022/08/11 00:11:35;;;;;;;5.20;3.40;;;18.50;99.90;;;;;;5022570;28;20046;-86
2022/08/11 00:14:03;;;;;;;4.35;3.72;;;18.50;99.90;;;;;;5021886;28;20045;-85
2022/08/11 00:16:29;;;;;;;5.28;3.92;;;18.50;99.90;;;;;;5002555;28;20041;-86
2022/08/11 00:18:55;;;;;;;;;;;18.40;99.90;;;;;;5019897;28;20042;-86
2022/08/11 00:21:23;;;;;;;8.27;3.97;;;18.50;99.90;;;;;;5004694;28;19921;-85
2022/08/11 00:23:59;;;;;;;5.30;3.95;;;18.40;99.90;;;;;;5018626;28;20117;-85
2022/08/11 00:26:26;;;;;;;6.68;4.40;;;18.40;99.90;;;;;;5029589;28;20430;-85
2022/08/11 00:28:53;;;;;;;5.38;3.67;;;18.40;99.90;;;;;;5021632;28;20037;-85
2022/08/11 00:31:32;;;;;;;5.05;4.30;;;18.40;99.90;;;;;;5009847;28;20034;-85
2022/08/11 00:34:00;;;;;;;6.35;4.22;;;18.40;99.90;;;;;;5018082;28;20034;-85
2022/08/11 00:36:37;;;;;;;5.57;4.72;;;18.40;99.90;;;;;;5023267;28;20061;-85
2022/08/11 00:39:04;;;;;;;;;;;18.30;99.90;;;;;;5026368;28;20566;-85
2022/08/11 00:41:41;;;;;;;9.02;5.20;;;18.30;99.90;;;;;;5032463;28;19929;-84
2022/08/11 00:44:39;;;;;;;7.70;4.63;;;18.20;99.90;;;;;;5020642;28;20046;-85
2022/08/11 00:47:25;;;;;;;8.02;5.00;;;18.20;99.90;;;;;;5021070;28;20512;-85
2022/08/11 00:50:03;;;;;;;6.68;5.35;;;18.20;99.90;;;;;;5008774;28;20069;-85
2022/08/11 00:52:54;;;;;;;9.48;5.80;;;18.20;99.90;;;;;;5020869;28;20040;-86
2022/08/11 00:55:50;;;;;;;9.13;6.07;;;18.20;99.90;;;;;;5018695;28;20049;-85
2022/08/11 00:58:34;;;;;;;9.02;5.88;;;18.10;99.90;;;;;;5013741;28;20056;-86
2022/08/11 01:01:35;;;;;;;9.80;5.90;;;18.10;99.90;;;;;;4997776;28;20548;-86
2022/08/11 01:04:39;;;;;;;10.45;5.88;;;18.10;99.90;;;;;;5014173;28;20506;-85
2022/08/11 01:07:29;;;;;;;10.15;6.50;;;18.10;99.90;;;;;;4999064;28;20099;-86
2022/08/11 01:10:20;;;;;;;9.68;6.32;;;18.00;99.90;;;;;;5014923;28;20628;-85
2022/08/11 01:13:17;;;;;;;7.68;6.10;;;18.00;99.90;;;;;;5015088;28;20567;-86
2022/08/11 01:16:04;;;;;;;9.00;6.35;;;18.00;99.90;;;;;;5004117;28;20402;-85
2022/08/11 01:19:07;;;;;;;8.25;6.18;;;18.00;99.90;;;;;;5023144;28;20498;-85
2022/08/11 01:22:07;;;;;;;8.82;6.30;;;18.00;99.90;;;;;;5036999;28;20054;-86
2022/08/11 01:24:58;;;;;;;9.63;6.38;;;17.90;99.90;;;;;;5016264;28;20040;-86
2022/08/11 01:27:47;;;;;;;10.15;6.22;;;18.00;99.90;;;;;;5018567;28;20128;-87
2022/08/11 01:30:36;;;;;;;8.50;6.72;;;17.90;99.90;;;;;;5021727;28;20116;-85
2022/08/11 01:33:45;;;;;;;8.18;6.35;;;17.90;99.90;;;;;;5008462;28;20043;-86
2022/08/11 01:36:44;;;;;;;12.25;6.88;;;17.90;99.90;;;;;;5014075;28;20042;-86
2022/08/11 01:39:49;;;;;;;8.85;6.18;;;17.90;99.90;;;;;;5017409;28;20464;-85
2022/08/11 01:45:36;;;;;;;10.50;7.07;;;17.80;99.90;;;;;;5025815;28;20596;-86
2022/08/11 01:48:14;;;;;;;11.57;7.18;;;17.80;99.90;;;;;;5020019;28;20033;-86
2022/08/11 01:51:02;;;;;;;7.78;6.43;;;17.70;99.90;;;;;;5022003;28;20037;-86
2022/08/11 01:53:30;;;;;;;;;;;17.70;99.90;;;;;;4999445;28;20076;-85
2022/08/11 01:56:17;;;;;;;10.43;7.20;;;17.60;99.90;;;;;;5023933;28;19917;-85
2022/08/11 01:59:09;;;;;;;7.93;6.45;;;17.60;99.90;;;;;;5020620;28;20037;-86
2022/08/11 02:02:02;;;;;;;11.35;7.28;;;17.60;99.90;;;;;;5021881;28;20192;-86
2022/08/11 02:04:49;;;;;;;10.10;6.90;;;17.60;99.90;;;;;;5019603;28;20037;-85
2022/08/11 02:07:33;;;;;;;9.70;7.20;;;17.60;99.90;;;;;;5022869;28;20037;-85
2022/08/11 02:13:59;;;;;;;11.15;7.50;;;17.50;99.90;;;;;;5020117;28;20051;-85
2022/08/11 02:16:52;;;;;;;11.27;7.20;;;17.50;99.90;;;;;;5004836;28;20077;-85
2022/08/11 02:25:32;;;;;;;9.93;7.80;;;17.40;99.90;;;;;;5021913;28;20128;-85
2022/08/11 02:28:21;;;;;;;11.90;7.78;;;17.40;99.90;;;;;;5023737;28;20060;-85
2022/08/11 02:34:23;;;;;;;11.65;8.43;;;17.40;99.90;;;;;;5030388;28;20166;-85
2022/08/11 02:37:24;;;;;;;10.15;8.25;;;17.40;99.90;;;;;;5020201;28;20083;-85
2022/08/11 02:40:11;;;;;;;10.38;8.27;;;17.40;99.90;;;;;;5024405;28;20045;-86
2022/08/11 02:42:50;;;;;;;12.00;8.68;;;17.40;99.90;;;;;;5016272;28;20042;-86
2022/08/11 02:45:46;;;;;;;11.68;8.32;;;17.40;99.90;;;;;;5025235;28;20056;-86
2022/08/11 02:51:32;;;;;;;13.05;9.00;;;17.30;99.90;;;;;;5016379;28;20046;-85
2022/08/11 02:54:26;;;;;;;11.43;8.27;;;17.30;99.90;;;;;;5024478;28;20068;-85
2022/08/11 02:57:04;;;;;;;13.93;9.55;;;17.30;99.90;;;;;;5003741;28;20053;-85
2022/08/11 02:59:50;;;;;;;12.45;9.07;;;17.30;99.90;;;;;;5013730;28;20073;-85
2022/08/11 03:02:31;;;;;;;14.00;9.05;;;17.30;99.90;;;;;;5023370;28;20052;-85
2022/08/11 03:05:09;;;;;;;13.63;9.73;;;17.30;99.90;;;;;;5023482;28;20045;-86
2022/08/11 03:07:59;;;;;;;15.60;10.13;;;17.30;99.90;;;;;;5013394;28;20052;-85
2022/08/11 03:16:43;;;;;;;13.93;9.98;;;17.30;99.90;;;;;;5022221;28;20536;-85
2022/08/11 03:17:18;;;;;;;14.63;9.93;;;17.20;99.90;;;;;;5014360;28;20073;-85
2022/08/11 03:20:07;;;;;;;14.20;10.18;;;17.20;99.90;;;;;;4974409;28;20076;-85
2022/08/11 03:22:58;;;;;;;16.60;10.52;;;17.20;99.90;;;;;;4993156;28;20562;-86
2022/08/11 03:25:35;;;;;;;16.08;10.50;;;17.30;99.90;;;;;;5020041;28;20393;-85
2022/08/11 03:28:07;;;;;;;13.52;10.20;;;17.20;99.90;;;;;;5024903;28;20042;-86
2022/08/11 03:31:05;;;;;;;14.00;9.98;;;17.30;99.90;;;;;;5024352;28;20065;-85
2022/08/11 03:34:01;;;;;;;16.17;11.05;;;17.30;99.90;;;;;;5029269;28;20120;-85
2022/08/11 03:36:30;;;;;;;17.48;11.38;;;17.20;99.90;;;;;;5023621;28;20072;-85
2022/08/11 03:39:02;;;;;;;18.83;11.70;;;17.20;99.90;;;;;;5017622;28;20057;-86
2022/08/11 03:41:55;;;;;;;18.45;11.63;;;17.20;99.90;;;;;;5022304;28;20498;-85
2022/08/11 03:44:36;;;;;;;15.63;11.77;;;17.10;99.90;;;;;;5022874;28;20505;-85
2022/08/11 03:47:20;;;;;;;18.30;11.85;;;17.10;99.90;;;;;;5024432;28;20038;-85
2022/08/11 03:50:05;;;;;;;18.33;12.05;;;17.10;99.90;;;;;;5019852;28;20731;-86
2022/08/11 03:53:08;;;;;;;14.10;10.55;;;17.10;99.90;;;;;;5000076;28;20045;-84
2022/08/11 03:55:36;;;;;;;14.38;11.50;;;17.20;99.90;;;;;;5018135;28;20490;-86
2022/08/11 03:58:36;;;;;;;14.45;11.02;;;17.10;99.90;;;;;;5027198;28;20072;-86
2022/08/11 04:01:14;;;;;;;17.52;11.88;;;17.10;99.90;;;;;;5019815;28;20056;-86
2022/08/11 04:03:55;;;;;;;13.82;11.00;;;17.20;99.90;;;;;;5000532;28;20081;-86
2022/08/11 04:06:46;;;;;;;14.55;11.30;;;17.10;99.90;;;;;;5002173;28;20033;-86
2022/08/11 04:09:45;;;;;;;15.57;11.10;;;17.10;99.90;;;;;;5019194;28;20494;-86
2022/08/11 04:12:33;;;;;;;17.88;11.68;;;17.10;99.90;;;;;;5014227;28;20045;-85
2022/08/11 04:18:49;;;;;;;18.75;11.93;;;17.10;99.90;;;;;;5017084;28;20069;-85
2022/08/11 04:21:52;;;;;;;16.65;11.88;;;17.10;99.90;;;;;;5022279;28;20519;-84
2022/08/11 04:24:37;;;;;;;18.52;12.65;;;17.10;99.90;;;;;;5015346;28;20050;-83
2022/08/11 04:27:16;;;;;;;17.92;12.85;;;17.10;99.90;;;;;;5003959;28;20037;-86
2022/08/11 04:30:00;;;;;;;16.45;12.60;;;17.10;99.90;;;;;;5018162;28;20171;-83
2022/08/11 04:32:47;;;;;;;19.55;13.45;;;17.10;99.90;;;;;;5015217;28;20052;-82
2022/08/11 04:35:30;;;;;;;17.70;13.68;;;17.10;99.90;;;;;;5023752;28;20137;-82
2022/08/11 04:38:08;;;;;;;17.67;13.50;;;17.10;99.90;;;;;;4998861;28;20088;-83
2022/08/11 04:40:51;;;;;;;18.77;13.30;;;17.10;99.90;;;;;;5025828;28;20053;-82
2022/08/11 04:43:55;;;;;;;18.25;12.63;;;17.10;99.90;;;;;;5018091;28;20037;-82
2022/08/11 04:47:06;;;;;;;18.05;13.32;;;17.10;99.90;;;;;;5019562;28;20037;-82
2022/08/11 05:02:24;;;;;;;13.20;10.73;;;17.10;99.90;;;;;;5028305;28;20057;-83
2022/08/11 05:05:30;;;;;;;12.98;10.20;;;17.10;99.90;;;;;;5021145;28;20401;-83
2022/08/11 05:08:11;;;;;;;13.77;10.32;;;17.10;99.90;;;;;;5023050;28;20060;-83
2022/08/11 05:10:52;;;;;;;13.70;10.10;;;17.10;99.90;;;;;;5004381;28;20045;-83
2022/08/11 05:36:22;;;;;;;10.52;7.90;;;17.40;99.90;;;;;;5024407;28;20064;-83
2022/08/11 05:58:36;;;;;;;11.45;7.18;;;18.40;99.90;;;;;;5021325;28;20042;-83
2022/08/11 06:01:02;;;;;;;9.77;7.72;;;18.50;99.90;;;;;;5005633;28;20036;-83
2022/08/11 06:03:31;;;;;;;7.20;6.50;;;18.70;99.90;;;;;;4989386;28;20034;-83
2022/08/11 06:05:58;;;;;;;9.68;7.00;;;18.80;99.90;;;;;;5019962;28;20042;-83
2022/08/11 06:08:29;;;;;;;10.15;7.15;;;18.90;99.90;;;;;;5005216;28;20065;-83
2022/08/11 06:11:00;;;;;;;9.05;6.45;;;19.10;99.90;;;;;;5005767;28;20475;-83
2022/08/11 06:13:27;;;;;;;10.25;7.13;;;19.10;99.90;;;;;;5021614;28;20080;-83
2022/08/11 06:15:54;;;;;;;9.90;7.30;;;19.20;99.90;;;;;;4989504;28;20037;-84
2022/08/11 06:18:21;;;;;;;9.35;6.85;;;19.40;99.90;;;;;;5002288;28;20042;-83
2022/08/11 06:20:53;;;;;;;8.25;6.45;;;19.50;99.90;;;;;;5004473;28;20038;-83
2022/08/11 06:23:22;;;;;;;8.18;6.25;;;19.60;99.90;;;;;;5018754;28;20042;-83
2022/08/11 06:25:52;;;;;;;8.57;5.82;;;19.80;99.90;;;;;;5021628;28;20034;-83
2022/08/11 06:28:30;;;;;;;10.10;6.13;;;20.20;99.90;;;;;;4993686;28;20092;-82
2022/08/11 06:30:57;;;;;;;7.90;5.47;;;20.80;99.90;;;;;;5018881;28;20042;-82
2022/08/11 06:33:34;;;;;;;8.57;5.68;;;21.30;99.90;;;;;;5003579;28;20037;-83
2022/08/11 06:36:02;;;;;;;7.93;5.60;;;21.80;99.90;;;;;;5005351;28;20033;-82
2022/08/11 06:38:56;;;;;;;8.40;5.32;;;22.30;99.90;;;;;;5018995;28;20057;-83
2022/08/11 06:41:29;;;;;;;6.93;5.10;;;22.70;99.90;;;;;;5002557;28;20519;-83
2022/08/11 06:44:13;;;;;;;6.90;4.85;;;23.00;99.90;;;;;;5019012;28;20617;-82
2022/08/11 06:46:41;;;;;;;9.15;5.63;;;23.40;99.90;;;;;;5002824;28;20029;-82
2022/08/11 06:52:03;;;;;;;8.75;5.07;;;23.70;99.90;;;;;;5019556;28;20041;-83
2022/08/11 06:54:49;;;;;;;8.45;5.13;;;23.90;99.90;;;;;;5021135;28;20037;-82
2022/08/11 07:02:52;;;;;;;7.83;4.13;;;24.50;99.90;;;;;;5008304;28;20693;-83
2022/08/11 07:05:52;;;;;;;5.30;3.55;;;24.70;99.90;;;;;;5021302;28;20311;-82
2022/08/11 07:28:54;;;;;;;5.95;3.65;;;25.30;99.90;;;;;;5022515;28;20045;-83
2022/08/11 07:28:55;;;;;;;5.68;3.97;;;25.80;99.90;;;;;;5006465;28;20069;-83
2022/08/11 07:31:50;;;;;;;4.68;3.15;;;25.50;99.90;;;;;;5016959;28;20038;-83
2022/08/11 07:34:24;;;;;;;4.90;3.50;;;25.80;99.90;;;;;;5000458;28;20112;-83
2022/08/11 07:37:07;;;;;;;5.63;3.53;;;26.20;99.90;;;;;;4998535;28;20069;-83
2022/08/11 07:39:36;;;;;;;4.70;2.95;;;26.10;99.90;;;;;;5017814;28;20419;-82
2022/08/11 07:42:12;;;;;;;6.88;3.13;;;26.30;99.90;;;;;;5018386;28;20482;-83
2022/08/11 07:52:58;;;;;;;4.55;2.72;;;27.00;99.90;;;;;;5010138;28;20180;-83
2022/08/11 07:55:25;;;;;;;3.88;2.30;;;27.20;99.90;;;;;;5005368;28;20037;-82
2022/08/11 08:17:56;;;;;;;3.97;2.85;;;27.90;99.90;;;;;;5019247;28;20087;-82
2022/08/11 08:20:24;;;;;;;5.13;2.63;;;28.20;99.90;;;;;;5007687;28;20176;-83
2022/08/11 08:22:55;;;;;;;5.38;2.63;;;28.30;99.80;;;;;;5023336;28;20406;-83
2022/08/11 08:25:24;;;;;;;6.68;2.53;;;28.60;99.90;;;;;;5011696;28;20072;-82
2022/08/11 08:27:51;;;;;;;4.82;2.80;;;28.70;99.90;;;;;;5012288;28;20102;-83
2022/08/11 08:33:02;;;;;;;6.10;2.80;;;29.00;99.70;;;;;;5024407;28;20124;-82
2022/08/11 08:35:31;;;;;;;5.20;2.38;;;28.90;99.30;;;;;;5011569;28;20553;-83
2022/08/11 08:37:58;;;;;;;5.78;2.03;;;29.10;98.40;;;;;;5011814;28;20068;-82
2022/08/11 08:40:25;;;;;;;3.95;2.00;;;29.30;98.90;;;;;;5026430;28;20137;-83
2022/08/11 08:42:57;;;;;;;5.35;2.08;;;29.40;98.10;;;;;;5023068;28;20061;-83
2022/08/11 08:45:24;;;;;;;4.68;1.98;;;29.70;98.30;;;;;;5022463;28;20038;-82
2022/08/11 08:48:05;;;;;;;4.10;1.67;;;29.80;98.50;;;;;;4993369;28;20045;-82
2022/08/11 08:53:33;;;;;;;3.35;2.33;;;30.30;97.50;;;;;;5026587;28;20118;-83
2022/08/11 08:56:00;;;;;;;3.40;2.17;;;30.40;97.30;;;;;;5022799;28;20046;-83
2022/08/11 08:58:28;;;;;;;3.03;1.70;;;30.50;97.10;;;;;;5024749;28;20034;-83
2022/08/11 09:00:55;;;;;;;4.43;1.85;;;30.70;97.70;;;;;;5022470;28;20049;-81
2022/08/11 09:03:21;;;;;;;6.75;1.83;;;30.70;96.90;;;;;;5022336;28;20044;-81
2022/08/11 09:05:48;;;;;;;3.20;1.50;;;31.00;97.30;;;;;;5022934;28;20092;-82
2022/08/11 09:08:20;;;;;;;3.10;1.35;;;31.10;96.50;;;;;;5024010;28;20034;-82
2022/08/11 09:11:48;;;;;;;3.63;1.30;;;30.90;96.30;;;;;;5025149;28;20080;-82
2022/08/11 09:13:34;;;;;;;4.22;1.42;;;31.40;96.80;;;;;;5004831;28;20052;-82
2022/08/11 09:16:01;;;;;;;3.70;1.27;;;31.30;95.30;;;;;;5027015;28;20116;-82
2022/08/11 09:18:28;;;;;;;4.07;1.23;;;31.80;95.30;;;;;;5022403;28;20381;-82
2022/08/11 09:20:55;;;;;;;2.92;1.30;;;32.00;95.40;;;;;;5027035;28;20073;-82
2022/08/11 09:28:51;;;;;;;1.92;1.13;;;32.50;94.50;;;;;;5019505;28;20199;-82
2022/08/11 09:31:18;;;;;;;3.50;1.50;;;32.40;93.80;;;;;;5005895;28;20088;-82
2022/08/11 09:33:45;;;;;;;3.65;1.30;;;32.60;94.10;;;;;;5021841;28;20107;-82
2022/08/11 09:41:46;;;;;;;2.60;1.27;;;33.00;93.60;;;;;;5020697;28;20052;-82
2022/08/11 09:47:00;;;;;;;4.50;1.13;;;33.40;92.20;;;;;;5021522;28;20100;-81
2022/08/11 09:49:27;;;;;;;2.83;1.30;;;33.50;92.30;;;;;;5014434;28;20410;-81
2022/08/11 09:51:54;;;;;;;4.18;1.20;;;33.80;92.40;;;;;;5005443;28;20123;-81
2022/08/11 09:54:23;;;;;;;3.47;1.05;;;33.90;91.90;;;;;;5021633;28;20041;-82
2022/08/11 09:59:37;;;;;;;2.45;1.00;;;34.00;92.20;;;;;;5020216;28;20129;-81
2022/08/11 10:02:04;;;;;;;1.90;1.00;;;34.20;91.40;;;;;;5020479;28;20064;-81
2022/08/11 10:04:37;;;;;;;2.70;1.20;;;34.20;90.50;;;;;;5005159;28;20120;-81
2022/08/11 10:07:09;;;;;;;2.42;1.35;;;34.50;90.40;;;;;;5027453;28;20030;-81
2022/08/11 10:09:49;;;;;;;2.17;1.00;;;34.80;88.60;;;;;;5020358;28;20041;-81
2022/08/11 10:12:25;;;;;;;3.17;1.10;;;34.80;88.80;;;;;;5020260;28;20049;-82
2022/08/11 10:20:47;;;;;;;2.67;0.88;;;34.80;85.90;;;;;;5024193;28;20057;-81
2022/08/11 10:28:42;;;;;;;3.05;0.70;;;35.50;85.80;;;;;;5021131;28;20048;-81
2022/08/11 10:34:10;;;;;;;2.05;1.00;;;35.30;85.10;;;;;;4965254;28;20462;-81
2022/08/11 10:36:44;;;;;;;2.75;0.90;;;35.10;84.70;;;;;;5008778;28;20079;-81
2022/08/11 10:39:15;;;;;;;3.30;1.02;;;35.00;85.10;;;;;;5021086;28;20516;-81
2022/08/11 10:44:43;;;;;;;3.60;1.10;;;36.00;85.10;;;;;;5023411;28;20064;-81
2022/08/11 11:01:01;;;;;;;2.40;1.13;;;36.20;83.80;;;;;;5019708;28;20048;-81
2022/08/11 11:03:30;;;;;;;1.42;0.80;;;36.20;83.20;;;;;;5023650;28;20049;-81
2022/08/11 11:06:43;;;;;;;4.85;0.90;;;36.70;82.40;;;;;;5020611;28;20041;-81
2022/08/11 11:09:28;;;;;;;3.72;0.98;;;36.00;82.20;;;;;;5023020;28;20081;-81
2022/08/11 11:17:55;;;;;;;1.57;0.97;;;36.10;80.60;;;;;;5023489;28;20099;-80
2022/08/11 11:21:03;;;;;;;3.60;0.82;;;36.10;79.80;;;;;;5019830;28;20034;-80
2022/08/11 11:23:54;;;;;;;3.05;0.80;;;36.40;80.70;;;;;;5004465;28;20049;-81
2022/08/11 11:26:54;;;;;;;3.17;0.80;;;36.60;80.80;;;;;;5017648;28;20054;-81
2022/08/11 11:29:39;;;;;;;3.80;1.00;;;36.50;80.20;;;;;;5020662;28;20048;-81
2022/08/11 11:32:10;;;;;;;2.70;1.08;;;36.50;79.90;;;;;;5017860;28;20407;-81
2022/08/11 11:35:01;;;;;;;2.70;0.85;;;36.60;80.00;;;;;;5021859;28;20054;-81
2022/08/11 11:37:32;;;;;;;0.95;0.60;;;36.60;78.50;;;;;;5019497;28;20482;-81
2022/08/11 11:39:59;;;;;;;3.42;1.00;;;36.70;78.90;;;;;;5022258;28;20049;-82
2022/08/11 11:42:25;;;;;;;3.13;1.08;;;37.10;79.50;;;;;;5020666;28;20074;-81
2022/08/11 11:44:51;;;;;;;2.60;0.88;;;37.20;79.60;;;;;;5018264;28;20048;-80
2022/08/11 11:47:19;;;;;;;1.92;0.88;;;37.00;78.50;;;;;;5017240;28;20095;-81
2022/08/11 11:49:47;;;;;;;1.95;0.90;;;37.10;78.50;;;;;;5001508;28;20034;-81
2022/08/11 11:52:18;;;;;;;3.90;1.10;;;36.90;78.70;;;;;;5020908;28;20100;-80
2022/08/11 11:54:52;;;;;;;1.42;0.73;;;36.40;77.90;;;;;;5011133;28;20474;-81
2022/08/11 12:02:52;;;;;;;1.77;0.85;;;37.10;78.60;;;;;;5026595;28;20390;-81
2022/08/11 12:05:18;;;;;;;2.72;0.80;;;36.70;78.30;;;;;;5024214;28;20053;-80
2022/08/11 12:10:30;;;;;;;3.53;0.77;;;37.20;78.30;;;;;;5027326;28;20061;-80
2022/08/11 12:15:46;;;;;;;4.45;0.93;;;37.60;76.70;;;;;;5023234;28;20049;-80
2022/08/11 12:18:12;;;;;;;2.75;0.90;;;37.80;77.40;;;;;;5021449;28;20046;-80
2022/08/11 12:20:39;;;;;;;2.22;0.80;;;37.80;77.50;;;;;;5020566;28;20038;-80
2022/08/11 12:28:35;;;;;;;2.95;0.70;;;37.50;75.60;;;;;;5025116;28;20048;-80
2022/08/11 12:31:01;;;;;;;5.18;0.70;;;37.40;75.90;;;;;;5010181;28;20041;-80
2022/08/11 12:33:27;;;;;;;3.53;1.00;;;37.30;77.00;;;;;;4991388;28;20371;-80
2022/08/11 12:35:57;;;;;;;4.80;1.10;;;37.00;75.50;;;;;;4971378;28;20044;-80
2022/08/11 12:38:25;;;;;;;2.65;0.50;;;37.40;76.20;;;;;;5005815;28;20053;-81
2022/08/11 12:46:33;;;;;;;4.80;1.05;;;37.20;77.20;;;;;;5005031;28;20046;-81
2022/08/11 12:52:07;;;;;;;3.70;0.90;;;37.30;77.60;;;;;;5023354;28;20883;-80
2022/08/11 12:54:50;;;;;;;3.70;0.90;;;36.80;77.30;;;;;;5017818;28;20057;-80
2022/08/11 13:05:44;;;;;;;2.95;1.00;;;36.40;77.10;;;;;;5024877;28;20121;-81
2022/08/11 13:08:13;;;;;;;4.40;1.02;;;36.90;77.90;;;;;;5021495;28;20048;-81
2022/08/11 13:13:30;;;;;;;1.50;0.73;;;37.10;77.20;;;;;;4983086;28;20049;-80
2022/08/11 13:15:57;;;;;;;4.30;1.38;;;37.10;77.40;;;;;;5002010;28;20080;-80
2022/08/11 13:18:23;;;;;;;2.55;0.77;;;36.90;77.50;;;;;;5005174;28;20045;-81
2022/08/11 13:20:53;;;;;;;1.55;0.70;;;36.80;76.80;;;;;;5022690;28;20529;-81
2022/08/11 13:23:19;;;;;;;2.28;0.82;;;36.60;76.50;;;;;;5025668;28;20041;-81
2022/08/11 13:25:45;;;;;;;1.45;0.70;;;36.70;77.60;;;;;;5026832;28;20037;-81
2022/08/11 13:28:11;;;;;;;4.80;1.02;;;36.90;78.10;;;;;;5020801;28;20068;-81
2022/08/11 13:33:24;;;;;;;3.22;0.70;;;36.50;77.20;;;;;;5019794;28;20060;-81
2022/08/11 13:35:53;;;;;;;1.55;0.80;;;36.80;77.10;;;;;;5024349;28;20049;-81
2022/08/11 13:38:21;;;;;;;2.25;0.70;;;36.70;76.80;;;;;;5024018;28;20572;-81
2022/08/11 13:40:48;;;;;;;1.33;0.73;;;36.50;77.90;;;;;;5021968;28;20504;-81
2022/08/11 13:43:14;;;;;;;3.20;0.65;;;36.50;76.80;;;;;;5021541;28;20387;-80
2022/08/11 13:45:42;;;;;;;1.42;0.77;;;36.70;77.70;;;;;;5023188;28;20513;-80
2022/08/11 13:48:09;;;;;;;1.77;0.63;;;36.40;77.00;;;;;;5019467;28;20048;-81
2022/08/11 13:53:23;;;;;;;1.40;0.60;;;36.40;76.90;;;;;;5007921;28;20052;-81
2022/08/11 13:55:49;;;;;;;3.60;0.80;;;36.10;76.90;;;;;;5017888;28;20387;-81
2022/08/11 13:58:16;;;;;;;1.38;0.80;;;35.70;77.80;;;;;;5025552;28;20066;-81
2022/08/11 14:00:47;;;;;;;5.10;0.80;;;34.70;76.40;;;;;;5021732;28;20437;-81
2022/08/11 14:03:13;;;;;;;4.00;0.80;;;34.80;77.90;;;;;;5003892;28;20040;-81
2022/08/11 14:05:47;;;;;;;1.17;0.60;;;34.70;78.00;;;;;;5020451;28;20033;-79
2022/08/11 14:08:17;;;;;;;3.33;0.60;;;34.50;77.80;;;;;;5005309;28;20513;-80
2022/08/11 14:10:46;;;;;;;2.05;0.60;;;34.30;77.50;;;;;;5024009;28;20482;-79
2022/08/11 14:16:11;;;;;;;2.20;0.82;;;34.00;78.40;;;;;;5022651;28;20045;-80
2022/08/11 14:18:44;;;;;;;1.48;0.82;;;33.70;77.70;;;;;;5005233;28;20229;-80
2022/08/11 14:23:59;;;;;;;1.75;0.60;;;33.90;78.60;;;;;;5019133;28;20168;-81
2022/08/11 14:26:26;;;;;;;2.33;1.00;;;33.80;78.40;;;;;;5005372;28;20046;-81
2022/08/11 14:29:04;;;;;;;2.10;0.90;;;33.70;79.20;;;;;;5021485;28;20434;-81
2022/08/11 14:31:32;;;;;;;1.67;0.63;;;33.10;78.00;;;;;;5022803;28;20037;-81
2022/08/11 14:34:01;;;;;;;1.95;0.80;;;33.20;78.90;;;;;;5002165;28;20044;-80
2022/08/11 14:36:36;;;;;;;1.83;0.80;;;33.00;78.70;;;;;;5020936;28;20053;-80
2022/08/11 14:39:12;;;;;;;2.47;0.57;;;32.90;78.90;;;;;;5002385;28;20060;-80
2022/08/11 14:47:18;;;;;;;4.50;1.00;;;33.00;79.00;;;;;;5023371;28;20104;-80
2022/08/11 14:49:44;;;;;;;1.77;0.80;;;32.90;79.30;;;;;;5019142;28;20038;-81
2022/08/11 14:52:17;;;;;;;4.22;0.80;;;32.90;79.50;;;;;;5018259;28;20075;-81
2022/08/11 14:57:34;;;;;;;2.53;0.80;;;32.60;79.10;;;;;;5022949;28;20114;-81
2022/08/11 15:00:03;;;;;;;6.55;0.90;;;32.40;79.10;;;;;;5019972;28;20125;-80
2022/08/11 15:05:14;;;;;;;1.77;0.90;;;31.80;81.60;;;;;;5025044;28;20052;-80
2022/08/11 15:07:40;;;;;;;2.95;1.00;;;31.90;82.20;;;;;;5024322;28;20370;-81
2022/08/11 15:10:08;;;;;;;3.13;0.93;;;32.00;82.20;;;;;;5003908;28;20042;-82
2022/08/11 15:12:36;;;;;;;2.00;1.05;;;32.10;82.00;;;;;;5001995;28;20474;-81
2022/08/11 15:17:51;;;;;;;2.90;1.00;;;32.00;81.70;;;;;;5014687;28;20042;-81
2022/08/11 15:37:25;;;;;;;1.80;1.05;;;31.90;81.20;;;;;;5018775;28;20065;-81
2022/08/11 15:37:35;;;;;;;3.38;1.00;;;31.80;80.80;;;;;;5018649;28;20049;-80
2022/08/11 15:45:51;;;;;;;2.70;0.98;;;31.50;82.20;;;;;;5027841;28;20056;-80
2022/08/11 15:48:22;;;;;;;3.80;1.08;;;31.30;82.80;;;;;;5029557;28;20045;-80
2022/08/11 15:50:54;;;;;;;4.57;1.00;;;31.10;83.40;;;;;;5021012;28;20033;-80
2022/08/11 15:53:26;;;;;;;4.32;1.15;;;31.00;83.70;;;;;;5003492;28;20052;-81
2022/08/11 15:55:53;;;;;;;1.30;0.90;;;30.90;83.80;;;;;;5017648;28;20037;-82
2022/08/11 16:04:11;;;;;;;3.53;1.30;;;30.80;84.70;;;;;;5020364;28;20048;-80
2022/08/11 16:07:00;;;;;;;2.58;1.20;;;30.60;84.60;;;;;;5000397;28;20041;-81
2022/08/11 16:09:43;;;;;;;4.93;1.10;;;30.40;85.10;;;;;;5042500;28;20042;-81
2022/08/11 16:12:11;;;;;;;3.58;0.88;;;30.30;85.00;;;;;;5022650;28;20117;-83
2022/08/11 16:17:29;;;;;;;5.80;5.22;;;30.30;85.50;;;;;;5015771;28;20410;-81
2022/08/11 16:19:57;;;;;;;109.35;100.75;;;30.00;85.60;;;;;;5003662;28;20123;-82
2022/08/11 16:22:40;;;;;;;24.60;22.60;;;30.00;86.00;;;;;;5021448;28;20037;-82
2022/08/11 16:25:09;;;;;;;4.82;1.70;;;30.00;85.90;;;;;;5037158;28;20078;-80
2022/08/11 16:27:42;;;;;;;3.70;1.17;;;29.90;86.10;;;;;;5020476;28;20104;-81
2022/08/11 16:30:09;;;;;;;2.78;1.30;;;29.70;85.80;;;;;;5019572;28;21660;-79
2022/08/11 16:32:38;;;;;;;3.03;1.23;;;29.60;86.10;;;;;;5020041;28;20048;-78
2022/08/11 16:40:42;;;;;;;3.72;1.15;;;29.60;86.50;;;;;;5027409;28;20053;-79
2022/08/11 16:48:45;;;;;;;;;;;29.30;87.30;;;;;;5020033;28;20493;-80
2022/08/11 16:51:11;;;;;;;;;;;29.10;87.40;;;;;;5009712;28;19966;-79
2022/08/11 16:53:39;;;;;;;3.10;1.33;;;29.00;87.80;;;;;;5023088;28;19917;-79
2022/08/11 16:56:06;;;;;;;6.90;1.52;;;28.90;87.80;;;;;;5008473;28;20034;-79
2022/08/11 17:01:22;;;;;;;2.45;1.25;;;29.00;88.40;;;;;;5025411;28;20045;-82
2022/08/11 17:18:04;;;;;;;3.17;1.33;;;28.70;89.40;;;;;;5018195;28;20044;-79
2022/08/11 17:20:31;;;;;;;4.10;1.70;;;28.70;89.30;;;;;;5028786;28;20045;-79
2022/08/11 17:25:43;;;;;;;5.35;1.40;;;28.70;89.50;;;;;;5018559;28;20172;-79
2022/08/11 17:28:12;;;;;;;5.70;1.52;;;28.70;89.90;;;;;;5008410;28;20065;-79
2022/08/11 17:36:10;;;;;;;2.35;1.23;;;28.30;90.30;;;;;;5026334;28;20273;-80
2022/08/11 17:38:38;;;;;;;2.47;1.00;;;28.10;90.40;;;;;;5022416;28;20050;-80
2022/08/11 17:49:40;;;;;;;5.93;1.50;;;28.10;90.70;;;;;;4956369;28;20054;-82
2022/08/11 18:00:28;;;;;;;3.47;1.20;;;27.80;90.70;;;;;;5024149;28;20081;-83
2022/08/11 18:05:43;;;;;;;5.25;1.35;;;27.70;90.80;;;;;;5024441;28;20183;-81
